Time;durP1;ratioP1;P1;durP2;ratioP2;P2;SDS_P1;SDS_P2;PMS_P1;PMS_P2;Temp;Humidity;BMP_temperature;BMP_pressure;BME280_temperature;BME280_humidity;BME280_pressure;Samples;Min_cycle;Max_cycle;Signal;HPM_P1;HPM_P2
2021/01/14 00:01:03;;;;;;;5.43;4.40;;;;;;;0.28;95.66;98457.08;1755010;80;25335;-70
2021/01/14 00:03:30;;;;;;;5.90;4.10;;;;;;;0.31;95.80;98454.33;1777161;80;25937;-70
2021/01/14 00:05:57;;;;;;;6.97;4.57;;;;;;;0.37;95.80;98459.65;1755215;81;25271;-69
2021/01/14 00:08:23;;;;;;;7.60;5.03;;;;;;;0.39;95.47;98458.24;1763573;80;25208;-69
2021/01/14 00:10:50;;;;;;;7.10;4.03;;;;;;;0.37;95.17;98463.53;1764633;80;25694;-70
2021/01/14 00:13:17;;;;;;;5.67;3.83;;;;;;;0.34;95.04;98467.10;1755108;81;25649;-69
2021/01/14 00:15:44;;;;;;;4.60;3.53;;;;;;;0.30;95.00;98463.02;1759508;80;25655;-69
2021/01/14 00:18:12;;;;;;;7.13;3.50;;;;;;;0.23;94.95;98469.42;1772375;80;25635;-70
2021/01/14 00:20:39;;;;;;;3.13;2.57;;;;;;;0.22;94.81;98457.44;1786248;80;25060;-70
2021/01/14 00:23:05;;;;;;;5.73;3.20;;;;;;;0.17;94.68;98459.44;1786292;80;25192;-69
2021/01/14 00:25:32;;;;;;;5.93;3.20;;;;;;;0.10;94.64;98458.07;1783128;80;25183;-70
2021/01/14 00:27:59;;;;;;;4.13;3.00;;;;;;;-0.02;94.65;98464.30;1769050;80;25743;-70
2021/01/14 00:30:28;;;;;;;5.73;2.90;;;;;;;0.02;94.71;98466.25;1763876;80;25710;-69
2021/01/14 00:32:55;;;;;;;5.37;3.23;;;;;;;-0.09;94.70;98459.52;1764220;80;25229;-70
2021/01/14 00:35:22;;;;;;;3.47;2.80;;;;;;;-0.14;94.75;98452.46;1761005;80;25306;-69
2021/01/14 00:37:51;;;;;;;4.27;3.13;;;;;;;-0.19;94.70;98462.56;1765913;80;25466;-68
2021/01/14 00:40:24;;;;;;;5.07;3.60;;;;;;;-0.20;94.84;98463.97;1755038;81;25081;-69
2021/01/14 00:43:06;;;;;;;6.60;3.83;;;;;;;-0.24;94.89;98462.44;1760118;80;25723;-69
2021/01/14 00:45:33;;;;;;;6.97;3.57;;;;;;;-0.26;94.89;98471.56;1768006;80;25330;-69
2021/01/14 00:48:01;;;;;;;6.50;4.10;;;;;;;-0.25;94.96;98468.52;1744277;82;25144;-69
2021/01/14 00:50:29;;;;;;;5.43;3.20;;;;;;;-0.26;95.03;98468.98;1752069;80;25138;-68
2021/01/14 00:52:55;;;;;;;2.93;2.47;;;;;;;-0.26;94.84;98474.15;1753934;80;25718;-68
2021/01/14 00:55:22;;;;;;;5.23;3.33;;;;;;;-0.24;94.97;98476.19;1744025;82;25291;-68
2021/01/14 00:57:49;;;;;;;4.03;3.10;;;;;;;-0.29;94.96;98470.89;1717196;82;25587;-70
2021/01/14 01:00:19;;;;;;;3.97;3.17;;;;;;;-0.33;95.04;98466.34;1744254;82;25133;-70
2021/01/14 01:02:49;;;;;;;4.63;3.60;;;;;;;-0.39;95.16;98470.09;1755935;80;25617;-68
2021/01/14 01:05:23;;;;;;;4.63;3.07;;;;;;;-0.29;95.40;98476.06;1889373;76;26854;-68
2021/01/14 01:07:55;;;;;;;4.93;3.67;;;;;;;-0.38;95.53;98473.03;1860088;77;25317;-68
2021/01/14 01:10:22;;;;;;;5.53;3.80;;;;;;;-0.32;95.67;98474.45;1849433;77;25295;-68
2021/01/14 01:12:54;;;;;;;5.40;3.40;;;;;;;-0.31;95.67;98472.73;1838754;77;25691;-69
2021/01/14 01:15:29;;;;;;;3.73;2.93;;;;;;;-0.25;95.88;98476.27;1815879;78;27585;-70
2021/01/14 01:17:57;;;;;;;4.77;3.30;;;;;;;-0.24;95.88;98478.77;1774203;79;25271;-69
2021/01/14 01:20:23;;;;;;;3.97;2.90;;;;;;;-0.24;95.94;98480.53;1758222;81;25362;-69
2021/01/14 01:22:50;;;;;;;3.20;2.90;;;;;;;-0.22;96.02;98478.70;1758255;81;25631;-69
2021/01/14 01:25:17;;;;;;;3.60;2.43;;;;;;;-0.23;95.98;98483.50;1758225;81;25222;-69
2021/01/14 01:27:44;;;;;;;3.70;2.47;;;;;;;-0.27;96.16;98481.97;1758301;81;25263;-69
2021/01/14 01:30:12;;;;;;;3.50;2.37;;;;;;;-0.24;96.09;98482.65;1758258;81;25638;-69
2021/01/14 01:32:38;;;;;;;2.63;1.90;;;;;;;-0.27;96.08;98491.02;1730908;81;25265;-68
2021/01/14 01:35:07;;;;;;;3.13;2.03;;;;;;;-0.24;96.13;98492.16;1744918;81;25329;-69
2021/01/14 01:37:34;;;;;;;2.87;2.10;;;;;;;-0.22;96.17;98498.08;1757732;81;25224;-69
2021/01/14 01:40:01;;;;;;;3.30;2.20;;;;;;;-0.23;96.22;98495.95;1757835;81;25330;-69
2021/01/14 01:42:28;;;;;;;3.37;2.47;;;;;;;-0.21;96.21;98502.34;1775995;79;25280;-68
2021/01/14 01:44:55;;;;;;;2.90;2.30;;;;;;;-0.16;96.30;98500.82;1757544;81;25835;-69
2021/01/14 01:47:32;;;;;;;2.60;2.10;;;;;;;-0.19;96.24;98508.26;1763364;80;25354;-69
2021/01/14 01:49:51;;;;;;;2.27;1.90;;;;;;;-0.14;96.38;98513.20;1763529;80;25784;-68
2021/01/14 01:52:17;;;;;;;3.70;2.37;;;;;;;-0.13;96.45;98511.00;1709656;82;25191;-69
2021/01/14 01:54:44;;;;;;;4.07;2.47;;;;;;;-0.15;96.37;98515.39;1726054;82;25286;-69
2021/01/14 01:57:12;;;;;;;3.73;2.33;;;;;;;-0.13;96.47;98513.13;1739081;82;25339;-69
2021/01/14 01:59:38;;;;;;;2.97;2.10;;;;;;;-0.08;96.33;98507.72;1738915;82;25242;-70
2021/01/14 02:02:24;;;;;;;2.23;1.90;;;;;;;-0.10;96.31;98513.41;1729722;82;25320;-70
2021/01/14 02:04:51;;;;;;;2.27;1.70;;;;;;;-0.18;96.27;98516.41;1709509;82;25640;-69
2021/01/14 02:07:46;;;;;;;2.63;1.77;;;;;;;-0.19;96.27;98521.18;1709436;82;25093;-69
2021/01/14 02:10:43;;;;;;;4.33;2.00;;;;;;;-0.10;96.38;98520.72;1849827;76;27352;-69
2021/01/14 02:13:42;;;;;;;2.30;1.80;;;;;;;-0.12;96.38;98530.28;1816370;78;25184;-68
2021/01/14 02:16:09;;;;;;;4.17;2.27;;;;;;;-0.07;96.34;98527.47;1781626;77;25269;-69
2021/01/14 02:18:35;;;;;;;3.43;2.00;;;;;;;-0.07;96.29;98530.91;1816605;78;25203;-69
2021/01/14 02:21:05;;;;;;;3.03;2.40;;;;;;;-0.08;96.18;98530.52;1809336;78;25124;-69
2021/01/14 02:24:07;;;;;;;4.13;2.77;;;;;;;-0.05;96.26;98526.92;1791721;78;25284;-68
2021/01/14 02:26:34;;;;;;;4.93;2.90;;;;;;;-0.02;96.30;98530.21;1811387;77;25258;-68
2021/01/14 02:29:02;;;;;;;6.43;3.90;;;;;;;0.01;96.20;98533.55;1756990;79;25305;-68
2021/01/14 02:31:28;;;;;;;6.93;4.17;;;;;;;0.05;96.25;98538.92;1787407;80;25202;-68
2021/01/14 02:33:56;;;;;;;6.93;3.70;;;;;;;0.04;96.18;98542.44;1787318;80;25289;-68
2021/01/14 02:36:25;;;;;;;3.63;2.30;;;;;;;0.10;96.30;98539.52;1787916;78;25277;-68
2021/01/14 02:38:53;;;;;;;2.90;2.30;;;;;;;0.11;96.24;98538.61;1801667;77;25315;-68
2021/01/14 02:41:19;;;;;;;3.00;2.57;;;;;;;0.05;96.04;98545.38;1810708;77;25076;-68
2021/01/14 02:43:47;;;;;;;2.73;1.90;;;;;;;0.06;96.06;98545.77;1770423;80;25281;-68
2021/01/14 02:46:14;;;;;;;3.23;1.87;;;;;;;0.11;96.03;98548.95;1787464;80;25661;-69
2021/01/14 02:49:01;;;;;;;2.87;1.77;;;;;;;-0.02;95.81;98549.59;1796989;78;25258;-70
2021/01/14 02:51:43;;;;;;;3.00;1.50;;;;;;;-0.01;95.84;98551.72;1789228;78;25257;-69
2021/01/14 02:54:10;;;;;;;2.30;1.60;;;;;;;-0.10;95.75;98553.03;1787489;80;25329;-68
2021/01/14 02:56:38;;;;;;;2.43;1.50;;;;;;;-0.14;95.55;98555.38;1787078;80;25269;-68
2021/01/14 02:59:05;;;;;;;2.23;1.30;;;;;;;-0.16;95.46;98557.68;1787476;80;25186;-68
2021/01/14 03:01:33;;;;;;;2.03;1.40;;;;;;;-0.17;95.07;98564.58;1787223;80;25194;-69
2021/01/14 03:04:00;;;;;;;3.00;1.83;;;;;;;-0.26;94.83;98563.77;1787378;79;25571;-68
2021/01/14 03:06:26;;;;;;;3.07;1.60;;;;;;;-0.34;94.58;98569.77;1787369;79;25692;-68
2021/01/14 03:08:53;;;;;;;2.73;1.60;;;;;;;-0.45;94.49;98572.44;1789680;79;25178;-68
2021/01/14 03:11:29;;;;;;;1.67;1.50;;;;;;;-0.51;94.39;98572.72;1796413;79;25617;-68
2021/01/14 03:13:56;;;;;;;3.60;1.90;;;;;;;-0.51;94.21;98580.94;1796406;78;25343;-69
2021/01/14 03:16:23;;;;;;;3.43;1.60;;;;;;;-0.56;94.39;98583.27;1796156;78;25301;-69
2021/01/14 03:18:51;;;;;;;2.37;1.60;;;;;;;-0.52;94.23;98581.41;1796394;79;25201;-69
2021/01/14 03:21:22;;;;;;;4.03;1.70;;;;;;;-0.56;94.19;98588.91;1795926;78;25656;-68
2021/01/14 03:23:48;;;;;;;4.33;1.60;;;;;;;-0.55;94.30;98594.47;1795474;78;25553;-69
2021/01/14 03:26:16;;;;;;;2.57;1.80;;;;;;;-0.57;94.14;98600.14;1795794;78;25794;-69
2021/01/14 03:28:44;;;;;;;2.83;1.83;;;;;;;-0.58;94.13;98598.48;1795556;78;25354;-69
2021/01/14 03:31:11;;;;;;;3.27;1.60;;;;;;;-0.55;94.13;98600.92;1795941;78;25201;-69
2021/01/14 03:33:39;;;;;;;3.37;2.07;;;;;;;-0.58;94.04;98608.81;1795841;78;25632;-69
2021/01/14 03:36:07;;;;;;;4.10;2.00;;;;;;;-0.53;94.00;98612.47;1795485;79;25732;-69
2021/01/14 03:41:22;;;;;;;7.87;4.20;;;;;;;-0.56;93.78;98612.98;1829398;78;25138;-69
2021/01/14 03:43:48;;;;;;;9.13;4.67;;;;;;;-0.53;93.76;98612.01;1809180;78;25721;-69
2021/01/14 03:46:17;;;;;;;12.67;6.57;;;;;;;-0.58;93.79;98613.98;1806144;79;25236;-69
2021/01/14 03:48:45;;;;;;;7.10;3.30;;;;;;;-0.55;93.62;98615.13;1806146;79;25200;-69
2021/01/14 03:51:22;;;;;;;6.63;3.57;;;;;;;-0.55;93.51;98615.13;1820374;78;25694;-70
2021/01/14 03:53:50;;;;;;;6.23;3.00;;;;;;;-0.52;93.62;98620.15;1808757;78;25350;-69
2021/01/14 03:56:17;;;;;;;5.77;2.70;;;;;;;-0.59;93.54;98622.19;1805638;79;25080;-69
2021/01/14 03:58:44;;;;;;;5.77;3.07;;;;;;;-0.55;93.58;98621.58;1825235;78;25207;-69
2021/01/14 04:01:11;;;;;;;4.17;2.87;;;;;;;-0.58;93.53;98627.72;1805709;79;25245;-69
2021/01/14 04:03:40;;;;;;;6.07;2.87;;;;;;;-0.56;93.32;98631.06;1805543;79;25660;-69
2021/01/14 04:06:08;;;;;;;5.90;2.60;;;;;;;-0.57;93.49;98629.84;1817898;78;25721;-69
2021/01/14 04:08:34;;;;;;;4.43;2.67;;;;;;;-0.55;93.19;98629.33;1812545;78;25317;-68
2021/01/14 04:11:03;;;;;;;3.50;2.10;;;;;;;-0.57;93.39;98634.57;1805698;79;25313;-69
2021/01/14 04:13:30;;;;;;;4.60;2.57;;;;;;;-0.53;93.18;98633.97;1805553;79;25372;-69
2021/01/14 04:15:58;;;;;;;5.20;2.90;;;;;;;-0.53;93.15;98637.02;1805591;79;25179;-69
2021/01/14 04:18:24;;;;;;;4.33;2.70;;;;;;;-0.46;92.85;98642.25;1805641;79;25278;-69
2021/01/14 04:20:52;;;;;;;5.27;2.67;;;;;;;-0.51;92.90;98643.77;1805651;79;25279;-69
2021/01/14 04:23:19;;;;;;;3.93;2.40;;;;;;;-0.50;92.88;98653.20;1805527;79;25720;-70
2021/01/14 04:25:47;;;;;;;5.70;3.20;;;;;;;-0.44;92.75;98646.89;1812796;78;25277;-69
2021/01/14 04:28:16;;;;;;;6.50;3.07;;;;;;;-0.46;92.80;98653.41;1817642;78;25206;-69
2021/01/14 04:30:42;;;;;;;6.40;3.57;;;;;;;-0.41;92.54;98650.62;1807170;78;25720;-70
2021/01/14 04:33:11;;;;;;;5.90;2.73;;;;;;;-0.46;92.44;98657.75;1823772;78;25227;-70
2021/01/14 04:35:57;;;;;;;5.13;2.70;;;;;;;-0.45;92.45;98651.69;1805561;79;25657;-69
2021/01/14 04:38:26;;;;;;;5.30;2.27;;;;;;;-0.49;92.53;98657.44;1805650;79;25249;-70
2021/01/14 04:41:02;;;;;;;4.57;2.73;;;;;;;-0.55;92.70;98662.91;1801456;79;25254;-70
2021/01/14 04:43:37;;;;;;;4.60;2.50;;;;;;;-0.54;92.94;98658.11;1818298;78;26862;-68
2021/01/14 04:46:06;;;;;;;6.10;3.20;;;;;;;-0.60;93.04;98658.42;1789447;80;25582;-69
2021/01/14 04:48:47;;;;;;;7.00;3.53;;;;;;;-0.54;93.13;98660.69;1757514;80;25726;-68
2021/01/14 04:51:19;;;;;;;8.13;3.83;;;;;;;-0.53;93.04;98670.13;1730844;82;25147;-68
2021/01/14 04:53:48;;;;;;;9.50;4.50;;;;;;;-0.57;93.19;98668.58;1757635;81;25334;-68
2021/01/14 04:56:16;;;;;;;6.37;3.43;;;;;;;-0.57;93.26;98670.73;1778986;80;25609;-69
2021/01/14 04:58:47;;;;;;;8.13;3.90;;;;;;;-0.60;93.32;98672.63;1788769;80;25735;-68
2021/01/14 05:01:23;;;;;;;8.87;4.03;;;;;;;-0.64;93.27;98675.78;1788930;79;25294;-68
2021/01/14 05:03:51;;;;;;;11.47;5.10;;;;;;;-0.64;93.30;98675.78;1788958;79;25720;-68
2021/01/14 05:06:23;;;;;;;10.03;5.30;;;;;;;-0.61;93.43;98682.09;1788813;80;25309;-69
2021/01/14 05:08:59;;;;;;;8.53;4.23;;;;;;;-0.67;93.65;98691.45;1788991;80;25277;-68
2021/01/14 05:11:26;;;;;;;7.40;4.00;;;;;;;-0.66;93.71;98697.44;1788842;80;25249;-68
2021/01/14 05:13:53;;;;;;;7.60;4.20;;;;;;;-0.72;93.77;98696.42;1735362;80;25790;-68
2021/01/14 05:16:19;;;;;;;8.37;4.20;;;;;;;-0.73;93.72;98698.64;1788215;79;25320;-69
2021/01/14 05:18:46;;;;;;;7.13;4.03;;;;;;;-0.70;93.84;98699.77;1788723;79;25613;-69
2021/01/14 05:21:13;;;;;;;5.63;3.17;;;;;;;-0.66;93.92;98702.60;1788990;80;25079;-69
2021/01/14 05:23:39;;;;;;;5.43;3.33;;;;;;;-0.72;93.91;98709.33;1724890;81;25304;-68
2021/01/14 05:26:06;;;;;;;5.30;3.30;;;;;;;-0.71;93.91;98713.60;1767431;81;25191;-68
2021/01/14 05:28:33;;;;;;;6.10;3.60;;;;;;;-0.76;94.16;98722.38;1767232;81;25307;-68
2021/01/14 05:31:19;;;;;;;7.53;3.50;;;;;;;-0.76;94.12;98726.25;1767409;81;25323;-69
2021/01/14 05:33:58;;;;;;;8.30;4.23;;;;;;;-0.75;94.16;98725.82;1767415;81;25220;-69
2021/01/14 05:36:25;;;;;;;7.03;4.27;;;;;;;-0.75;94.23;98725.36;1767287;80;25310;-69
2021/01/14 05:38:52;;;;;;;11.83;6.43;;;;;;;-0.77;93.89;98732.34;1767251;81;25696;-69
2021/01/14 05:41:18;;;;;;;15.53;8.37;;;;;;;-0.80;94.04;98735.52;1767360;81;25314;-70
2021/01/14 05:43:57;;;;;;;23.53;9.50;;;;;;;-0.81;94.08;98733.38;1714378;81;25093;-69
2021/01/14 05:46:29;;;;;;;12.67;6.40;;;;;;;-0.81;94.02;98739.00;1745886;80;25192;-69
2021/01/14 05:48:59;;;;;;;10.17;4.40;;;;;;;-0.81;93.91;98741.13;1767355;81;25072;-70
2021/01/14 05:51:35;;;;;;;11.70;4.63;;;;;;;-0.77;93.78;98741.38;1844754;76;26847;-69
2021/01/14 05:54:06;;;;;;;11.20;5.23;;;;;;;-0.86;93.94;98756.45;1823388;77;25188;-70
2021/01/14 05:56:47;;;;;;;9.10;4.23;;;;;;;-0.81;93.89;98751.45;1795444;78;25286;-69
2021/01/14 05:59:16;;;;;;;10.27;4.77;;;;;;;-0.82;93.63;98758.83;1826494;77;25254;-69
2021/01/14 06:04:33;;;;;;;9.23;4.37;;;;;;;-0.78;93.56;98763.39;1889239;75;26824;-69
2021/01/14 06:07:04;;;;;;;5.63;2.83;;;;;;;-0.84;93.34;98767.53;1860139;77;25281;-68
2021/01/14 06:09:42;;;;;;;5.07;3.30;;;;;;;-0.88;93.58;98770.70;1860174;77;25752;-69
2021/01/14 06:12:10;;;;;;;6.23;3.47;;;;;;;-0.85;93.59;98780.08;1849964;77;25787;-69
2021/01/14 06:14:37;;;;;;;4.47;2.90;;;;;;;-0.88;93.72;98790.53;1851031;77;25352;-70
2021/01/14 06:17:12;;;;;;;7.77;4.40;;;;;;;-0.86;93.69;98780.51;1859989;77;25289;-70
2021/01/14 06:19:39;;;;;;;8.13;4.63;;;;;;;-0.80;93.73;98795.73;1860257;77;25723;-70
2021/01/14 06:22:06;;;;;;;7.20;4.23;;;;;;;-0.80;93.63;98798.32;1846930;77;25388;-70
2021/01/14 06:24:39;;;;;;;5.73;3.93;;;;;;;-0.79;93.65;98800.00;1826250;78;25307;-69
2021/01/14 06:27:09;;;;;;;13.13;6.63;;;;;;;-0.81;93.63;98806.13;1839242;77;25299;-69
2021/01/14 06:29:43;;;;;;;10.67;5.60;;;;;;;-0.81;93.67;98806.13;1860041;77;25347;-70
2021/01/14 06:32:18;;;;;;;16.87;6.63;;;;;;;-0.82;93.66;98811.76;1846415;77;25134;-69
2021/01/14 06:34:49;;;;;;;20.07;8.77;;;;;;;-0.80;93.71;98818.97;1826374;78;25338;-69
2021/01/14 06:37:20;;;;;;;21.47;9.67;;;;;;;-0.75;93.63;98833.81;1826353;78;25315;-69
2021/01/14 06:39:53;;;;;;;16.70;8.20;;;;;;;-0.76;93.63;98826.13;1836447;77;25141;-69
2021/01/14 06:42:32;;;;;;;19.33;8.70;;;;;;;-0.72;93.49;98841.89;1859715;77;25260;-69
2021/01/14 06:45:08;;;;;;;17.20;8.40;;;;;;;-0.72;93.46;98846.20;1858778;77;25684;-69
2021/01/14 06:47:45;;;;;;;22.80;10.37;;;;;;;-0.66;93.43;98843.35;1835087;76;27443;-68
2021/01/14 06:50:26;;;;;;;21.00;10.37;;;;;;;-0.73;93.55;98856.16;1812189;77;25202;-68
2021/01/14 06:53:10;;;;;;;19.23;9.37;;;;;;;-0.74;93.55;98870.80;1786726;80;25201;-69
2021/01/14 06:55:38;;;;;;;12.97;7.53;;;;;;;-0.74;93.66;98872.08;1786257;79;25305;-68
2021/01/14 06:58:13;;;;;;;9.73;5.87;;;;;;;-0.69;93.75;98881.76;1785073;79;25767;-69
2021/01/14 07:00:42;;;;;;;10.07;5.80;;;;;;;-0.66;93.73;98882.92;1787524;79;25201;-69
2021/01/14 07:03:19;;;;;;;8.63;5.73;;;;;;;-0.70;93.67;98886.98;1784944;79;25697;-68
2021/01/14 07:05:58;;;;;;;8.73;5.00;;;;;;;-0.69;93.81;98901.13;1787461;79;25217;-70
2021/01/14 07:08:50;;;;;;;8.70;5.90;;;;;;;-0.64;93.84;98895.77;1786364;80;25601;-70
2021/01/14 07:11:21;;;;;;;12.67;7.13;;;;;;;-0.61;93.83;98898.22;1785504;79;25273;-70
2021/01/14 07:13:50;;;;;;;7.97;5.53;;;;;;;-0.64;93.82;98898.35;1784104;79;25326;-70
2021/01/14 07:16:22;;;;;;;9.93;5.60;;;;;;;-0.64;93.93;98908.22;1785499;80;25195;-69
2021/01/14 07:18:50;;;;;;;10.00;6.30;;;;;;;-0.60;93.95;98908.49;1783793;79;25494;-70
2021/01/14 07:21:36;;;;;;;7.57;5.00;;;;;;;-0.54;93.95;98921.58;1784420;79;25301;-70
2021/01/14 07:24:26;;;;;;;7.43;5.47;;;;;;;-0.46;93.76;98925.13;1818186;78;26984;-68
2021/01/14 07:26:58;;;;;;;6.93;4.90;;;;;;;-0.47;93.49;98925.59;1779844;79;25822;-68
2021/01/14 07:29:25;;;;;;;7.10;4.90;;;;;;;-0.49;93.53;98931.26;1728594;81;25282;-68
2021/01/14 07:31:53;;;;;;;5.47;4.97;;;;;;;-0.48;93.52;98938.12;1730883;82;25388;-69
2021/01/14 07:34:59;;;;;;;7.57;5.77;;;;;;;-0.46;93.62;98940.64;1719346;82;25677;-69
2021/01/14 07:37:29;;;;;;;7.00;5.33;;;;;;;-0.39;93.42;98949.36;1727474;83;25291;-69
2021/01/14 07:39:57;;;;;;;8.80;6.50;;;;;;;-0.44;93.40;98949.98;1720834;81;25307;-70
2021/01/14 07:42:29;;;;;;;6.77;6.03;;;;;;;-0.41;93.45;98953.73;1727444;83;25302;-70
2021/01/14 07:45:05;;;;;;;9.40;6.07;;;;;;;-0.33;93.49;98953.88;1727468;81;25319;-69
2021/01/14 07:47:38;;;;;;;7.83;5.77;;;;;;;-0.31;93.37;98958.05;1715685;83;25660;-70
2021/01/14 07:50:27;;;;;;;9.77;7.27;;;;;;;-0.24;93.26;98959.91;1712574;82;25793;-69
2021/01/14 07:52:55;;;;;;;11.30;8.60;;;;;;;-0.22;92.98;98970.58;1712293;82;25098;-69
2021/01/14 07:55:31;;;;;;;12.93;9.57;;;;;;;-0.16;93.16;98982.39;1712654;83;25260;-68
2021/01/14 07:58:20;;;;;;;9.07;7.83;;;;;;;-0.11;93.11;98973.97;1849846;76;27431;-68
2021/01/14 08:01:09;;;;;;;8.03;6.90;;;;;;;-0.09;93.29;98978.61;1819764;78;25185;-68
2021/01/14 08:03:43;;;;;;;7.90;6.77;;;;;;;0.01;93.18;98984.22;1788695;78;25288;-69
2021/01/14 08:06:30;;;;;;;9.57;6.27;;;;;;;0.06;93.04;98998.24;1819706;77;25267;-69
2021/01/14 08:09:23;;;;;;;10.07;7.53;;;;;;;0.10;92.89;98997.19;1819725;78;25192;-69
2021/01/14 08:11:57;;;;;;;9.63;7.03;;;;;;;0.18;92.86;99005.44;1808463;78;25597;-70
2021/01/14 08:14:38;;;;;;;8.50;6.40;;;;;;;0.20;92.86;99011.38;1808611;79;25332;-70
2021/01/14 08:17:25;;;;;;;8.97;6.80;;;;;;;0.28;92.47;99013.63;1808281;78;25295;-69
2021/01/14 08:19:52;;;;;;;9.93;6.90;;;;;;;0.20;92.69;99022.19;1799027;79;25628;-69
2021/01/14 08:22:19;;;;;;;10.90;8.43;;;;;;;0.23;92.67;99027.23;1808488;78;25269;-69
2021/01/14 08:27:39;;;;;;;9.67;7.53;;;;;;;0.30;92.81;99035.95;1802301;77;26912;-70
2021/01/14 08:30:15;;;;;;;6.63;5.80;;;;;;;0.27;92.66;99054.62;1757689;80;25306;-71
2021/01/14 08:33:04;;;;;;;6.83;6.13;;;;;;;0.28;92.81;99051.97;1770182;80;25250;-70
2021/01/14 08:35:41;;;;;;;6.03;5.43;;;;;;;0.35;92.75;99059.86;1818286;78;26890;-70
2021/01/14 08:38:15;;;;;;;8.37;6.30;;;;;;;0.37;92.63;99064.97;1789573;79;25740;-69
2021/01/14 08:40:42;;;;;;;5.83;5.17;;;;;;;0.39;92.53;99069.61;1757491;80;25300;-69
2021/01/14 08:43:16;;;;;;;8.37;6.70;;;;;;;0.41;92.37;99088.95;1761071;81;25706;-69
2021/01/14 08:45:55;;;;;;;19.10;12.53;;;;;;;0.48;92.18;99085.17;1835268;76;26976;-69
2021/01/14 08:48:29;;;;;;;12.03;8.33;;;;;;;0.42;92.07;99085.00;1787370;80;25707;-70
2021/01/14 08:51:00;;;;;;;16.70;11.93;;;;;;;0.38;92.16;99093.80;1789902;78;25695;-69
2021/01/14 08:53:34;;;;;;;18.17;11.73;;;;;;;0.39;91.98;99105.83;1749077;79;25300;-69
2021/01/14 08:56:17;;;;;;;18.00;12.27;;;;;;;0.44;92.03;99101.30;1818284;78;26883;-68
2021/01/14 08:58:47;;;;;;;22.47;14.23;;;;;;;0.40;92.38;99112.67;1789550;80;25624;-68
2021/01/14 09:01:25;;;;;;;17.00;11.87;;;;;;;0.53;92.35;99112.97;1789414;80;25107;-69
2021/01/14 09:03:56;;;;;;;18.80;13.90;;;;;;;0.53;92.30;99122.03;1789409;80;25332;-70
2021/01/14 09:06:39;;;;;;;26.83;17.43;;;;;;;0.62;92.46;99139.75;1789539;80;25224;-70
2021/01/14 09:09:16;;;;;;;19.17;14.33;;;;;;;0.63;92.41;99147.05;1789086;80;25636;-69
2021/01/14 09:11:45;;;;;;;24.33;15.93;;;;;;;0.69;92.51;99151.97;1762862;80;25319;-70
2021/01/14 09:14:16;;;;;;;27.37;17.27;;;;;;;0.81;92.31;99160.47;1789533;80;25300;-70
2021/01/14 09:16:45;;;;;;;27.10;16.37;;;;;;;0.81;92.28;99158.34;1789409;79;25317;-70
2021/01/14 09:19:23;;;;;;;33.40;19.07;;;;;;;0.83;92.36;99163.82;1789082;79;25755;-71
2021/01/14 09:21:50;;;;;;;22.47;16.23;;;;;;;0.82;92.38;99170.36;1786046;79;25352;-69
2021/01/14 09:24:17;;;;;;;19.47;14.63;;;;;;;0.92;92.44;99179.39;1789563;79;25261;-71
2021/01/14 09:26:51;;;;;;;18.57;13.87;;;;;;;1.01;92.46;99181.58;1788932;79;25210;-70
2021/01/14 09:29:21;;;;;;;22.37;15.77;;;;;;;1.10;92.32;99187.61;1789336;79;25360;-70
2021/01/14 09:31:47;;;;;;;23.07;17.37;;;;;;;1.20;92.16;99191.09;1789191;79;25288;-70
2021/01/14 09:34:15;;;;;;;26.60;18.17;;;;;;;1.19;92.06;99195.45;1789446;79;25684;-70
2021/01/14 09:36:42;;;;;;;25.93;17.73;;;;;;;1.21;91.91;99197.97;1788713;79;25158;-71
2021/01/14 09:39:14;;;;;;;28.10;20.00;;;;;;;1.21;92.03;99206.56;1789359;79;25617;-70
2021/01/14 09:41:41;;;;;;;28.23;19.77;;;;;;;1.30;92.03;99197.52;1789396;80;25291;-71
2021/01/14 09:44:14;;;;;;;23.60;17.33;;;;;;;1.35;92.03;99207.22;1789147;79;25216;-71
2021/01/14 09:46:49;;;;;;;20.47;16.50;;;;;;;1.46;91.92;99217.94;1812225;77;27494;-70
2021/01/14 09:49:19;;;;;;;19.13;15.47;;;;;;;1.52;91.97;99222.44;1721222;80;25246;-71
2021/01/14 09:51:46;;;;;;;19.13;15.13;;;;;;;1.63;91.18;99213.71;1760883;80;25716;-69
2021/01/14 09:54:15;;;;;;;19.47;15.30;;;;;;;1.74;91.06;99221.80;1727423;81;25250;-71
2021/01/14 09:56:50;;;;;;;19.50;15.80;;;;;;;1.92;90.85;99224.44;1757169;80;25298;-70
2021/01/14 09:59:30;;;;;;;19.37;16.13;;;;;;;2.10;91.06;99227.43;1757252;81;25722;-71
2021/01/14 10:02:11;;;;;;;20.73;16.73;;;;;;;2.27;90.52;99229.66;1757324;81;25254;-71
2021/01/14 10:04:57;;;;;;;22.57;17.30;;;;;;;2.39;90.19;99236.81;1845406;77;26872;-71
2021/01/14 10:07:25;;;;;;;21.90;16.63;;;;;;;2.37;89.63;99245.14;1819979;78;25270;-71
2021/01/14 10:09:53;;;;;;;21.10;17.37;;;;;;;2.22;89.43;99251.93;1812483;78;25393;-71
2021/01/14 10:12:21;;;;;;;23.43;17.57;;;;;;;2.22;89.00;99257.12;1814481;78;25238;-74
2021/01/14 10:14:49;;;;;;;20.40;15.77;;;;;;;2.11;89.30;99265.44;1792443;80;25362;-72
2021/01/14 10:17:17;;;;;;;22.53;17.47;;;;;;;2.13;89.13;99269.23;1769986;78;25401;-72
2021/01/14 10:19:49;;;;;;;21.60;16.90;;;;;;;2.09;89.17;99273.73;1806702;78;25280;-72
2021/01/14 10:22:17;;;;;;;19.73;15.07;;;;;;;2.08;89.34;99278.55;1792362;80;25636;-71
2021/01/14 10:24:46;;;;;;;20.57;16.47;;;;;;;2.09;89.08;99289.77;1760954;79;25285;-70
2021/01/14 10:27:19;;;;;;;19.57;15.10;;;;;;;2.10;88.68;99280.61;1792301;80;25347;-70
2021/01/14 10:29:47;;;;;;;21.67;16.87;;;;;;;2.29;88.81;99283.61;1794457;78;25273;-70
2021/01/14 10:32:22;;;;;;;20.80;15.97;;;;;;;2.43;88.59;99291.57;1818239;78;25654;-72
2021/01/14 10:34:53;;;;;;;22.57;17.20;;;;;;;2.55;88.30;99295.31;1824784;78;25198;-72
2021/01/14 10:37:31;;;;;;;22.47;16.23;;;;;;;2.73;87.38;99302.61;1824691;78;25199;-72
2021/01/14 10:40:04;;;;;;;20.37;16.47;;;;;;;2.73;86.74;99300.02;1819814;78;25253;-72
2021/01/14 10:42:37;;;;;;;22.60;17.63;;;;;;;2.62;86.13;99314.85;1775900;79;25192;-71
2021/01/14 10:45:12;;;;;;;24.53;17.40;;;;;;;2.48;86.03;99314.25;1815415;79;25777;-72
2021/01/14 10:47:41;;;;;;;21.37;16.47;;;;;;;2.50;86.11;99328.45;1805230;78;25272;-72
2021/01/14 10:50:24;;;;;;;20.97;16.07;;;;;;;2.47;84.93;99329.42;1818143;78;25636;-71
2021/01/14 10:53:04;;;;;;;23.27;18.33;;;;;;;2.45;84.54;99338.19;1792401;79;25731;-71
2021/01/14 10:55:32;;;;;;;25.17;17.27;;;;;;;2.63;85.88;99336.02;1790109;80;25269;-71
2021/01/14 10:58:01;;;;;;;20.50;15.70;;;;;;;2.64;85.61;99341.58;1760801;80;25139;-71
2021/01/14 11:00:37;;;;;;;18.03;14.60;;;;;;;2.52;84.78;99344.78;1755843;81;25200;-71
2021/01/14 11:03:10;;;;;;;22.63;17.00;;;;;;;2.40;85.19;99346.23;1723692;82;25370;-71
2021/01/14 11:05:49;;;;;;;23.17;17.93;;;;;;;2.19;84.68;99360.59;1688686;84;25662;-71
2021/01/14 11:08:22;;;;;;;23.53;17.23;;;;;;;2.01;84.80;99367.94;1759486;80;25142;-70
2021/01/14 11:11:05;;;;;;;24.67;17.47;;;;;;;1.84;85.44;99370.02;1757739;80;25313;-72
2021/01/14 11:13:43;;;;;;;19.57;15.43;;;;;;;1.78;84.95;99373.75;1692193;84;25251;-71
2021/01/14 11:16:11;;;;;;;23.20;17.33;;;;;;;1.70;84.72;99375.84;1703447;83;25744;-70
2021/01/14 11:18:40;;;;;;;28.00;20.43;;;;;;;1.71;84.91;99389.64;1759532;81;25300;-71
2021/01/14 11:21:08;;;;;;;22.90;17.03;;;;;;;1.61;85.42;99390.06;1758185;80;25718;-69
2021/01/14 11:23:35;;;;;;;25.83;19.63;;;;;;;1.76;84.78;99389.84;1761474;81;25290;-70
2021/01/14 11:26:03;;;;;;;22.43;16.23;;;;;;;1.74;85.00;99389.03;1736141;81;25159;-70
2021/01/14 11:28:31;;;;;;;22.47;16.93;;;;;;;1.87;84.77;99388.50;1733906;81;25094;-70
2021/01/14 11:30:59;;;;;;;20.70;15.50;;;;;;;1.93;84.62;99398.58;1757096;80;25262;-71
2021/01/14 11:33:27;;;;;;;18.67;14.37;;;;;;;1.98;84.62;99389.69;1753814;81;25262;-71
2021/01/14 11:35:53;;;;;;;19.23;14.63;;;;;;;2.12;84.49;99396.83;1760491;81;25196;-71
2021/01/14 11:38:23;;;;;;;21.70;17.00;;;;;;;2.28;83.96;99398.70;1735444;81;25560;-71
2021/01/14 11:40:51;;;;;;;21.90;16.77;;;;;;;2.29;83.75;99405.58;1698023;84;25817;-71
2021/01/14 11:43:18;;;;;;;23.13;16.17;;;;;;;2.36;83.98;99406.53;1703572;83;25761;-70
2021/01/14 11:45:45;;;;;;;22.23;16.10;;;;;;;2.52;83.79;99403.20;1686300;84;25756;-71
2021/01/14 11:48:12;;;;;;;19.17;14.63;;;;;;;2.71;83.09;99413.53;1703711;83;25346;-70
2021/01/14 11:50:39;;;;;;;20.53;14.77;;;;;;;2.92;82.43;99408.58;1703342;82;25504;-71
2021/01/14 11:53:06;;;;;;;20.03;14.57;;;;;;;3.00;81.44;99422.50;1703482;83;25152;-71
2021/01/14 11:55:33;;;;;;;19.77;14.47;;;;;;;2.93;80.71;99425.86;1703572;84;25293;-71
2021/01/14 11:58:01;;;;;;;23.73;16.23;;;;;;;2.89;80.61;99429.51;1732523;81;25642;-71
2021/01/14 12:00:28;;;;;;;22.53;15.80;;;;;;;2.81;80.56;99437.30;1732755;81;25145;-71